Time;durP1;ratioP1;P1;durP2;ratioP2;P2;SDS_P1;SDS_P2;PMS_P1;PMS_P2;Temp;Humidity;BMP_temperature;BMP_pressure;BME280_temperature;BME280_humidity;BME280_pressure;Samples;Min_cycle;Max_cycle;Signal;HPM_P1;HPM_P2
2022/11/10 00:00:21;;;;;;;3.65;1.45;;;;;;;13.62;69.64;101036.25;5069012;28;20055;-67
2022/11/10 00:02:48;;;;;;;5.15;1.63;;;;;;;13.57;69.91;101041.78;5068551;28;20044;-67
2022/11/10 00:05:15;;;;;;;8.57;1.70;;;;;;;13.54;69.79;101036.69;5069087;28;20052;-67
2022/11/10 00:07:43;;;;;;;8.93;1.50;;;;;;;13.49;70.34;101030.84;5068926;28;20052;-67
2022/11/10 00:10:09;;;;;;;6.50;1.40;;;;;;;13.40;70.18;101028.75;5068682;28;20044;-67
2022/11/10 00:12:36;;;;;;;8.85;2.28;;;;;;;13.41;70.33;101037.53;5069172;28;20552;-66
2022/11/10 00:17:50;;;;;;;5.97;1.50;;;;;;;13.34;70.51;101039.63;5032701;28;20078;-66
2022/11/10 00:20:16;;;;;;;4.00;1.30;;;;;;;13.25;70.97;101047.25;5068882;28;20048;-66
2022/11/10 00:22:44;;;;;;;4.85;2.20;;;;;;;13.48;70.22;101052.03;5069391;28;20052;-66
2022/11/10 00:25:11;;;;;;;4.43;1.90;;;;;;;13.69;69.27;101060.44;5068383;28;20495;-66
2022/11/10 00:27:38;;;;;;;6.63;1.75;;;;;;;13.51;70.00;101067.66;5068412;28;20060;-67
2022/11/10 00:30:05;;;;;;;6.38;1.50;;;;;;;13.18;71.22;101069.59;5068546;28;20060;-67
2022/11/10 00:32:32;;;;;;;4.90;1.40;;;;;;;13.38;70.25;101074.56;5067666;28;20071;-66
2022/11/10 00:34:58;;;;;;;6.63;1.55;;;;;;;13.29;70.33;101075.94;5069069;28;20059;-67
2022/11/10 00:37:25;;;;;;;11.70;2.30;;;;;;;13.13;70.71;101080.38;5067905;28;20055;-67
2022/11/10 00:39:52;;;;;;;4.25;1.60;;;;;;;13.21;70.84;101079.94;5066105;28;20424;-67
2022/11/10 00:42:19;;;;;;;5.95;2.00;;;;;;;13.22;70.52;101082.50;5068582;28;20044;-66
2022/11/10 00:44:45;;;;;;;4.00;1.40;;;;;;;13.01;71.22;101086.28;5067249;28;20056;-66
2022/11/10 00:47:12;;;;;;;5.68;1.52;;;;;;;12.83;72.13;101084.69;5067554;28;20062;-66
2022/11/10 00:49:39;;;;;;;4.65;1.38;;;;;;;12.90;71.54;101088.69;5068905;28;20428;-66
2022/11/10 00:52:05;;;;;;;4.20;1.70;;;;;;;13.01;71.40;101091.56;5085536;28;20048;-67
2022/11/10 00:54:31;;;;;;;5.88;2.15;;;;;;;13.04;71.34;101092.25;5082886;28;20045;-66
2022/11/10 00:56:59;;;;;;;9.07;1.73;;;;;;;13.14;71.16;101103.16;5067805;28;20044;-66
2022/11/10 00:59:26;;;;;;;5.78;1.63;;;;;;;13.25;70.75;101100.75;5067157;28;20048;-67
2022/11/10 01:01:52;;;;;;;4.55;1.50;;;;;;;12.98;71.69;101107.53;5068018;28;20045;-67
2022/11/10 01:04:18;;;;;;;7.03;1.77;;;;;;;13.09;71.58;101107.78;5065655;28;20053;-67
2022/11/10 01:06:46;;;;;;;5.38;1.73;;;;;;;12.87;72.18;101102.00;5075684;28;20052;-67
2022/11/10 01:09:13;;;;;;;6.00;1.55;;;;;;;12.96;71.64;101109.41;5067491;28;20063;-67
2022/11/10 01:11:39;;;;;;;5.10;1.55;;;;;;;13.15;71.02;101118.03;5066829;28;20048;-67
2022/11/10 01:14:07;;;;;;;6.95;1.65;;;;;;;13.16;70.80;101112.66;5067120;28;20048;-67
2022/11/10 01:16:34;;;;;;;7.55;1.98;;;;;;;13.22;71.23;101116.75;5068590;28;20066;-67
2022/11/10 01:19:02;;;;;;;5.00;2.05;;;;;;;13.22;71.16;101121.16;5068149;28;20044;-67
2022/11/10 01:21:30;;;;;;;8.60;2.25;;;;;;;13.36;70.56;101129.97;5067757;28;20507;-67
2022/11/10 01:23:56;;;;;;;5.20;1.70;;;;;;;13.21;70.91;101128.19;5067642;28;20074;-67
2022/11/10 01:26:23;;;;;;;3.92;1.40;;;;;;;13.19;71.40;101124.81;5068708;28;20110;-66
2022/11/10 01:28:50;;;;;;;8.50;2.08;;;;;;;13.41;70.63;101130.56;5067316;28;20044;-66
2022/11/10 01:31:20;;;;;;;3.92;1.95;;;;;;;13.55;70.40;101135.88;5066270;28;20045;-66
2022/11/10 01:33:47;;;;;;;4.70;1.70;;;;;;;13.66;70.07;101132.63;5068889;28;20051;-66
2022/11/10 01:36:13;;;;;;;5.80;2.10;;;;;;;13.58;70.39;101132.22;5067925;28;20044;-66
2022/11/10 01:38:42;;;;;;;4.40;1.70;;;;;;;13.43;71.00;101133.94;5065986;28;20044;-67
2022/11/10 01:41:11;;;;;;;7.75;2.08;;;;;;;13.54;70.76;101139.44;5068580;28;20055;-67
2022/11/10 01:43:38;;;;;;;8.80;1.92;;;;;;;13.57;70.47;101155.06;5068028;28;20098;-67
2022/11/10 01:46:06;;;;;;;6.43;2.10;;;;;;;13.52;70.88;101148.38;5065152;28;20547;-67
2022/11/10 01:48:38;;;;;;;6.32;1.60;;;;;;;13.64;70.16;101142.38;5067162;28;20041;-67
2022/11/10 01:51:08;;;;;;;5.68;2.42;;;;;;;13.11;72.22;101151.56;5067661;28;20052;-67
2022/11/10 01:53:38;;;;;;;8.15;2.35;;;;;;;13.11;72.46;101148.09;5066787;28;20052;-67
2022/11/10 01:56:08;;;;;;;7.88;2.05;;;;;;;13.04;72.78;101151.97;5065242;28;20040;-67
2022/11/10 01:58:39;;;;;;;7.85;1.83;;;;;;;12.94;72.86;101156.88;5064856;28;20066;-67
2022/11/10 02:01:05;;;;;;;11.07;2.63;;;;;;;13.26;71.14;101160.41;5066908;28;20131;-66
2022/11/10 02:03:40;;;;;;;9.80;2.53;;;;;;;13.02;71.83;101161.72;5066453;28;21997;-66
2022/11/10 02:06:07;;;;;;;8.35;2.53;;;;;;;12.95;72.34;101168.25;5065314;28;20044;-66
2022/11/10 02:08:35;;;;;;;6.15;2.33;;;;;;;13.08;71.47;101162.22;5064783;28;20512;-66
2022/11/10 02:11:01;;;;;;;5.80;2.65;;;;;;;13.01;71.25;101166.13;5066525;28;20052;-67
2022/11/10 02:13:28;;;;;;;6.88;2.42;;;;;;;12.89;72.18;101168.59;5072861;28;20048;-67
2022/11/10 02:15:54;;;;;;;9.18;2.40;;;;;;;12.79;72.58;101172.63;5074694;28;20048;-66
2022/11/10 02:18:21;;;;;;;4.60;2.33;;;;;;;12.77;73.12;101179.78;5066600;28;20044;-67
2022/11/10 02:20:48;;;;;;;8.77;2.70;;;;;;;12.71;73.01;101190.63;5065878;28;20052;-67
2022/11/10 02:23:48;;;;;;;8.25;2.35;;;;;;;12.54;74.16;101196.78;5065531;28;20048;-66
2022/11/10 02:26:17;;;;;;;8.13;2.13;;;;;;;12.89;72.57;101185.25;5064856;28;20040;-67
2022/11/10 02:28:44;;;;;;;7.78;2.20;;;;;;;12.73;73.30;101186.97;5065761;28;20051;-67
2022/11/10 02:31:10;;;;;;;5.43;2.17;;;;;;;12.79;73.04;101184.00;5066173;28;20523;-67
2022/11/10 02:33:36;;;;;;;6.78;2.67;;;;;;;12.77;72.98;101190.31;5066356;28;20048;-67
2022/11/10 02:36:05;;;;;;;12.80;2.25;;;;;;;13.08;71.69;101193.00;5067102;28;20055;-66
2022/11/10 02:38:32;;;;;;;9.70;2.85;;;;;;;13.12;71.38;101194.53;5064507;28;20041;-67
2022/11/10 02:40:58;;;;;;;8.07;2.33;;;;;;;12.94;72.14;101195.50;5065903;28;20051;-67
2022/11/10 02:43:24;;;;;;;11.88;2.58;;;;;;;12.72;72.98;101206.31;5065887;28;20041;-67
2022/11/10 02:45:51;;;;;;;5.32;1.95;;;;;;;12.56;74.22;101200.19;5064424;28;20047;-67
2022/11/10 02:48:18;;;;;;;8.30;2.45;;;;;;;12.72;73.07;101201.06;5081756;28;20412;-66
2022/11/10 02:50:44;;;;;;;6.22;2.00;;;;;;;12.88;72.88;101204.59;5084092;28;20044;-66
2022/11/10 02:53:12;;;;;;;8.18;2.28;;;;;;;12.94;72.97;101203.38;5085036;28;20040;-66
2022/11/10 02:55:38;;;;;;;4.50;1.92;;;;;;;12.89;72.73;101201.03;5072970;28;20051;-66
2022/11/10 02:58:05;;;;;;;5.97;2.00;;;;;;;12.90;73.10;101207.13;5064974;28;20605;-66
2022/11/10 03:00:32;;;;;;;6.38;2.25;;;;;;;12.97;72.52;101203.25;5065263;28;20412;-67
2022/11/10 03:03:00;;;;;;;11.05;2.35;;;;;;;12.86;73.38;101214.31;5066802;28;20040;-67
2022/11/10 03:05:26;;;;;;;7.00;2.00;;;;;;;12.89;73.11;101218.59;5065641;28;20098;-67
2022/11/10 03:07:54;;;;;;;9.05;2.20;;;;;;;12.88;72.86;101217.75;5066167;28;20048;-66
2022/11/10 03:10:22;;;;;;;10.93;2.15;;;;;;;12.83;73.38;101213.66;5066346;28;20074;-67
2022/11/10 03:12:48;;;;;;;8.02;2.25;;;;;;;12.85;73.62;101219.69;5065666;28;20048;-67
2022/11/10 03:15:15;;;;;;;8.10;2.00;;;;;;;12.88;73.53;101228.28;5063841;28;20048;-67
2022/11/10 03:17:42;;;;;;;5.88;2.22;;;;;;;12.96;72.71;101241.88;5065430;28;20052;-67
2022/11/10 03:20:09;;;;;;;7.07;2.42;;;;;;;12.79;73.36;101235.78;5071088;28;20423;-67
2022/11/10 03:22:35;;;;;;;5.63;2.00;;;;;;;12.65;73.83;101241.78;5084215;28;20048;-67
2022/11/10 03:25:02;;;;;;;10.90;2.17;;;;;;;12.51;74.53;101253.03;5077362;28;20120;-67
2022/11/10 03:27:30;;;;;;;7.03;2.13;;;;;;;12.84;73.64;101253.06;5065231;28;20048;-67
2022/11/10 03:29:56;;;;;;;5.03;2.90;;;;;;;12.99;72.89;101257.50;5065991;28;20492;-67
2022/11/10 03:32:22;;;;;;;11.32;3.78;;;;;;;12.93;72.90;101264.88;5065841;28;20416;-67
2022/11/10 03:34:49;;;;;;;4.25;2.13;;;;;;;13.05;72.28;101266.84;5065191;28;20563;-66
2022/11/10 03:37:15;;;;;;;4.28;1.90;;;;;;;12.99;72.13;101277.72;5065249;28;20401;-66
2022/11/10 03:39:42;;;;;;;11.50;2.47;;;;;;;13.16;71.73;101268.00;5065732;28;20621;-66
2022/11/10 03:42:08;;;;;;;7.75;2.03;;;;;;;13.01;71.84;101275.84;5065479;28;20047;-66
2022/11/10 03:44:36;;;;;;;9.07;2.63;;;;;;;12.74;72.94;101283.41;5064952;28;20647;-66
2022/11/10 03:47:03;;;;;;;10.15;2.30;;;;;;;12.79;73.09;101288.41;5065898;28;20051;-66
2022/11/10 03:49:29;;;;;;;7.57;2.20;;;;;;;12.84;72.56;101286.41;5064992;28;20041;-67
2022/11/10 03:51:56;;;;;;;8.20;1.95;;;;;;;12.93;71.96;101284.16;5063972;28;20049;-67
2022/11/10 03:54:23;;;;;;;7.18;2.17;;;;;;;12.85;72.47;101277.59;5073532;28;20503;-67
2022/11/10 03:56:49;;;;;;;8.18;2.25;;;;;;;12.42;73.97;101281.56;5065659;28;20385;-67
2022/11/10 03:59:16;;;;;;;6.57;2.15;;;;;;;12.44;74.19;101287.63;5064320;28;20544;-67
2022/11/10 04:01:44;;;;;;;8.25;2.80;;;;;;;12.37;74.64;101284.44;5066431;28;20480;-67
2022/11/10 04:08:57;;;;;;;9.52;2.28;;;;;;;12.46;74.35;101288.38;5065538;28;20424;-67
2022/11/10 04:09:41;;;;;;;6.85;2.22;;;;;;;12.46;73.30;101293.63;5065671;28;20210;-67
2022/11/10 04:17:37;;;;;;;7.68;2.08;;;;;;;11.71;75.94;101313.06;5064767;28;20513;-67
2022/11/10 04:20:04;;;;;;;8.13;2.17;;;;;;;11.42;77.11;101310.09;5066112;28;20368;-67
2022/11/10 04:25:15;;;;;;;10.48;2.33;;;;;;;11.28;77.49;101315.09;5063037;28;20055;-67
2022/11/10 04:27:41;;;;;;;8.57;2.25;;;;;;;11.36;76.66;101326.97;5063526;28;20041;-67
2022/11/10 04:30:09;;;;;;;10.15;2.28;;;;;;;11.10;77.74;101324.66;5066805;28;20051;-67
2022/11/10 04:32:35;;;;;;;7.65;2.63;;;;;;;10.99;79.00;101335.63;5067150;28;20047;-67
2022/11/10 04:35:03;;;;;;;6.95;2.55;;;;;;;11.44;76.17;101345.88;5067484;28;20500;-67
2022/11/10 04:37:30;;;;;;;9.52;2.85;;;;;;;11.19;78.06;101348.75;5068653;28;20048;-67
2022/11/10 04:39:56;;;;;;;10.63;2.20;;;;;;;11.50;76.92;101353.44;5068169;28;20067;-66
2022/11/10 04:42:22;;;;;;;10.60;2.67;;;;;;;11.45;77.29;101351.97;5068262;28;20492;-66
2022/11/10 04:44:49;;;;;;;6.05;2.05;;;;;;;11.55;77.05;101340.97;5068605;28;20045;-66
2022/11/10 04:47:15;;;;;;;8.93;2.15;;;;;;;11.38;77.61;101348.75;5073624;28;20094;-67
2022/11/10 04:49:42;;;;;;;23.38;4.25;;;;;;;10.86;80.33;101342.34;5088241;28;20048;-66
2022/11/10 04:52:10;;;;;;;6.72;2.55;;;;;;;10.74;81.35;101346.34;5089018;28;20062;-66
2022/11/10 04:54:36;;;;;;;6.15;2.30;;;;;;;10.97;80.78;101352.38;5079584;28;20064;-66
2022/11/10 04:57:03;;;;;;;8.13;2.08;;;;;;;11.48;79.01;101365.81;5067208;28;20511;-66
2022/11/10 04:59:29;;;;;;;7.57;2.50;;;;;;;11.52;78.85;101366.53;5068828;28;20053;-66
2022/11/10 05:01:55;;;;;;;8.32;2.15;;;;;;;11.29;79.37;101375.44;5065927;28;20048;-66
2022/11/10 05:04:22;;;;;;;9.88;2.42;;;;;;;11.12;80.37;101372.72;5068014;28;20067;-66
2022/11/10 05:06:49;;;;;;;9.75;2.58;;;;;;;11.32;79.57;101380.53;5066824;28;20444;-66
2022/11/10 05:09:17;;;;;;;6.68;2.40;;;;;;;11.14;80.66;101378.72;5066542;28;20109;-66
2022/11/10 05:11:43;;;;;;;19.00;2.88;;;;;;;10.99;81.02;101387.25;5068011;28;20472;-66
2022/11/10 05:14:10;;;;;;;10.15;2.33;;;;;;;10.56;83.47;101390.84;5069249;28;20056;-66
2022/11/10 05:16:37;;;;;;;7.82;2.40;;;;;;;11.03;80.97;101381.81;5067175;28;20040;-66
2022/11/10 05:19:03;;;;;;;11.20;2.80;;;;;;;11.03;81.05;101380.97;5067355;28;20052;-66
2022/11/10 05:21:30;;;;;;;7.25;2.45;;;;;;;11.33;80.38;101390.13;5066122;28;20413;-66
2022/11/10 05:23:56;;;;;;;7.03;2.20;;;;;;;11.67;78.70;101402.59;5066408;28;20048;-66
2022/11/10 05:26:24;;;;;;;9.13;2.97;;;;;;;11.67;78.39;101411.34;5059538;28;20484;-66
2022/11/10 05:28:51;;;;;;;5.15;2.28;;;;;;;11.87;77.53;101410.44;5075994;28;20051;-66
2022/11/10 05:31:17;;;;;;;10.63;2.80;;;;;;;11.59;78.49;101405.56;5066890;28;20412;-67
2022/11/10 05:33:43;;;;;;;7.82;2.30;;;;;;;11.45;78.89;101417.63;5068323;28;20063;-67
2022/11/10 05:36:10;;;;;;;9.48;2.60;;;;;;;11.58;77.58;101418.75;5066554;28;20045;-67
2022/11/10 05:38:37;;;;;;;8.40;2.60;;;;;;;10.86;81.34;101428.06;5066355;28;20040;-67
2022/11/10 05:41:03;;;;;;;10.77;2.83;;;;;;;11.11;80.46;101424.34;5067777;28;20519;-66
2022/11/10 05:43:31;;;;;;;9.25;2.40;;;;;;;10.97;80.36;101441.59;5065616;28;20492;-67
2022/11/10 05:45:57;;;;;;;13.15;2.38;;;;;;;10.58;81.79;101430.97;5078164;28;20415;-67
2022/11/10 05:48:24;;;;;;;9.82;2.60;;;;;;;10.93;80.33;101438.25;5067482;28;20047;-67
2022/11/10 05:50:50;;;;;;;8.02;2.28;;;;;;;10.89;80.29;101431.41;5080567;28;20058;-67
2022/11/10 05:53:17;;;;;;;10.18;2.70;;;;;;;10.99;80.08;101432.72;5085947;28;20052;-67
2022/11/10 05:55:43;;;;;;;8.60;2.65;;;;;;;11.15;78.92;101438.19;5081575;28;20435;-67
2022/11/10 05:58:10;;;;;;;10.85;2.75;;;;;;;10.97;79.27;101444.22;5077274;28;20470;-67
2022/11/10 06:00:37;;;;;;;6.88;2.45;;;;;;;10.84;79.12;101450.88;5083245;28;20051;-67
2022/11/10 06:03:06;;;;;;;11.02;2.70;;;;;;;10.66;80.29;101455.97;5086681;28;20399;-67
2022/11/10 06:05:34;;;;;;;9.20;2.75;;;;;;;11.10;78.63;101458.53;5081341;28;20040;-67
2022/11/10 06:08:02;;;;;;;9.77;2.83;;;;;;;11.14;77.75;101463.59;5067022;28;20045;-67
2022/11/10 06:10:28;;;;;;;7.28;3.10;;;;;;;11.06;77.77;101476.16;5065780;28;20512;-67
2022/11/10 06:12:55;;;;;;;6.00;2.70;;;;;;;10.93;78.61;101487.25;5073268;28;20051;-67
2022/11/10 06:15:22;;;;;;;10.68;3.10;;;;;;;10.42;80.28;101491.03;5080577;28;20048;-67
2022/11/10 06:17:50;;;;;;;6.35;2.97;;;;;;;10.80;78.89;101504.38;5066282;28;20048;-67
2022/11/10 06:20:20;;;;;;;13.10;2.60;;;;;;;10.43;79.99;101511.09;5080727;28;20048;-67
2022/11/10 06:22:58;;;;;;;8.93;2.63;;;;;;;10.63;79.33;101510.31;5085956;28;20491;-67
2022/11/10 06:25:25;;;;;;;9.20;3.13;;;;;;;10.12;81.51;101519.25;5078559;28;20051;-67
2022/11/10 06:27:52;;;;;;;7.70;2.58;;;;;;;10.00;82.10;101529.31;5066987;28;20045;-67
2022/11/10 06:30:19;;;;;;;10.77;2.85;;;;;;;9.95;81.80;101528.63;5069066;28;20048;-67
2022/11/10 06:32:45;;;;;;;5.93;2.60;;;;;;;9.86;82.92;101521.13;5065998;28;20055;-67
2022/11/10 06:35:13;;;;;;;9.18;2.83;;;;;;;9.59;83.72;101523.81;5066567;28;20044;-67
2022/11/10 06:37:39;;;;;;;10.85;3.13;;;;;;;9.69;84.30;101532.19;5068352;28;20051;-67
2022/11/10 06:40:07;;;;;;;8.45;3.10;;;;;;;9.76;83.60;101536.28;5065089;28;20071;-67
2022/11/10 06:42:34;;;;;;;12.63;3.03;;;;;;;9.97;82.16;101547.78;5065714;28;20412;-67
2022/11/10 06:45:01;;;;;;;5.00;2.80;;;;;;;9.96;82.77;101546.06;5079152;28;20570;-67
2022/11/10 06:47:28;;;;;;;10.88;2.80;;;;;;;10.17;81.85;101550.53;5064633;28;20049;-67
2022/11/10 06:49:55;;;;;;;7.60;2.58;;;;;;;10.50;80.14;101561.53;5081340;28;20044;-66
2022/11/10 06:52:23;;;;;;;7.20;3.03;;;;;;;10.69;78.90;101573.88;5065748;28;20044;-66
2022/11/10 06:54:49;;;;;;;13.07;3.30;;;;;;;10.78;78.15;101571.81;5050927;28;20047;-66
2022/11/10 06:57:16;;;;;;;9.27;2.95;;;;;;;11.01;76.80;101569.16;5065107;28;20044;-66
2022/11/10 06:59:42;;;;;;;7.32;2.78;;;;;;;10.87;77.48;101582.78;5065705;28;20051;-67
2022/11/10 07:02:14;;;;;;;8.25;3.15;;;;;;;10.59;78.65;101587.41;5065524;28;20055;-67
2022/11/10 07:04:41;;;;;;;10.57;3.15;;;;;;;10.19;80.76;101591.53;5064878;28;20071;-67
2022/11/10 07:07:08;;;;;;;7.72;2.67;;;;;;;10.48;80.35;101598.31;5067036;28;20127;-67
2022/11/10 07:09:36;;;;;;;7.60;2.67;;;;;;;10.76;78.52;101603.34;5064765;28;20048;-67
2022/11/10 07:12:03;;;;;;;8.40;3.85;;;;;;;10.75;78.20;101612.97;5066126;28;20048;-67
2022/11/10 07:14:29;;;;;;;15.15;4.30;;;;;;;11.04;77.10;101617.13;5066351;28;20041;-67
2022/11/10 07:16:56;;;;;;;12.00;3.72;;;;;;;10.92;77.58;101616.72;5066003;28;20045;-67
2022/11/10 07:19:22;;;;;;;8.18;3.80;;;;;;;10.65;78.88;101624.75;5072139;28;20058;-67
2022/11/10 07:21:49;;;;;;;9.93;3.90;;;;;;;11.05;77.63;101636.31;5077063;28;20048;-67
2022/11/10 07:24:15;;;;;;;12.65;4.15;;;;;;;11.35;76.25;101635.09;5065018;28;20064;-67
2022/11/10 07:26:43;;;;;;;8.27;3.22;;;;;;;11.14;77.08;101639.44;5063766;28;20416;-67
2022/11/10 07:29:09;;;;;;;12.60;4.60;;;;;;;10.81;79.01;101639.91;5069313;28;20511;-67
2022/11/10 07:31:36;;;;;;;17.02;5.43;;;;;;;11.06;78.01;101646.75;5067816;28;20493;-67
2022/11/10 07:34:02;;;;;;;10.55;5.38;;;;;;;11.68;76.13;101646.84;5070538;28;20068;-67
2022/11/10 07:36:29;;;;;;;11.40;5.50;;;;;;;12.20;73.80;101636.75;5066653;28;20442;-67
2022/11/10 07:38:55;;;;;;;17.20;4.40;;;;;;;11.74;75.65;101653.66;5065946;28;20048;-67
2022/11/10 07:41:21;;;;;;;8.77;4.43;;;;;;;12.28;73.71;101657.44;5064676;28;20465;-67
2022/11/10 07:43:49;;;;;;;19.52;4.93;;;;;;;12.73;71.65;101665.91;5065569;28;20044;-67
2022/11/10 07:46:16;;;;;;;9.55;4.18;;;;;;;12.74;71.79;101661.50;5070322;28;20052;-67
2022/11/10 07:48:42;;;;;;;14.82;4.78;;;;;;;12.56;71.66;101666.66;5064627;28;20051;-66
2022/11/10 07:51:08;;;;;;;15.20;5.32;;;;;;;12.46;72.41;101672.41;5065892;28;20060;-66
2022/11/10 07:53:35;;;;;;;9.90;4.50;;;;;;;12.56;72.48;101679.81;5063189;28;20052;-66
2022/11/10 07:56:01;;;;;;;10.82;4.22;;;;;;;12.57;73.13;101691.19;5065440;28;20052;-67
2022/11/10 07:58:29;;;;;;;11.02;4.70;;;;;;;12.43;73.92;101693.59;5065568;28;20421;-67
2022/11/10 08:00:57;;;;;;;12.50;4.70;;;;;;;12.90;71.54;101691.44;5082716;28;20407;-67
2022/11/10 08:03:24;;;;;;;13.85;3.80;;;;;;;12.45;73.84;101692.59;5082722;28;20040;-67
2022/11/10 08:05:50;;;;;;;13.05;4.32;;;;;;;12.20;74.73;101697.22;5085832;28;20415;-67
2022/11/10 08:08:17;;;;;;;10.70;3.75;;;;;;;12.71;73.23;101698.47;5087837;28;20492;-67
2022/11/10 08:10:43;;;;;;;10.35;3.65;;;;;;;13.02;72.43;101704.03;5069568;28;20396;-67
2022/11/10 08:13:12;;;;;;;19.75;3.72;;;;;;;13.06;72.15;101695.06;5071301;28;20729;-67
2022/11/10 08:15:39;;;;;;;7.05;3.58;;;;;;;12.79;73.31;101701.59;5080541;28;20423;-67
2022/11/10 08:18:16;;;;;;;7.28;3.53;;;;;;;13.35;72.48;101704.25;5068946;28;20500;-67
2022/11/10 08:20:43;;;;;;;9.38;4.00;;;;;;;13.34;72.57;101699.94;5086571;28;20101;-67
2022/11/10 08:23:09;;;;;;;10.57;3.65;;;;;;;13.38;72.99;101709.38;5087449;28;20040;-67
2022/11/10 08:25:38;;;;;;;8.65;3.78;;;;;;;13.11;73.96;101706.28;5075005;28;20512;-67
2022/11/10 08:28:07;;;;;;;10.63;3.67;;;;;;;13.31;74.12;101715.84;5073057;28;20056;-67
2022/11/10 08:30:35;;;;;;;12.35;3.95;;;;;;;14.18;69.86;101728.25;5068256;28;20075;-67
2022/11/10 08:33:04;;;;;;;8.95;3.13;;;;;;;14.38;69.36;101722.81;5068393;28;20044;-67
2022/11/10 08:35:35;;;;;;;8.68;3.70;;;;;;;14.83;67.63;101724.81;5067616;28;20041;-67
2022/11/10 08:38:07;;;;;;;8.10;3.05;;;;;;;15.48;65.84;101729.16;5069587;28;20060;-67
2022/11/10 08:40:33;;;;;;;8.45;3.03;;;;;;;15.76;64.58;101739.03;5068166;28;20071;-67
2022/11/10 08:43:01;;;;;;;7.45;3.10;;;;;;;15.59;63.55;101740.81;5082321;28;20541;-67
2022/11/10 08:45:28;;;;;;;8.52;2.85;;;;;;;15.28;64.51;101742.59;5073760;28;20401;-67
2022/11/10 08:47:59;;;;;;;8.57;3.42;;;;;;;15.33;65.56;101748.50;5068153;28;20049;-67
2022/11/10 08:50:25;;;;;;;9.63;3.08;;;;;;;15.33;65.24;101748.50;5063777;28;20127;-67
2022/11/10 08:52:53;;;;;;;10.40;3.00;;;;;;;14.89;65.72;101745.63;5067275;28;20052;-67
2022/11/10 08:55:20;;;;;;;10.80;3.03;;;;;;;14.30;68.16;101752.19;5067160;28;20052;-67
2022/11/10 08:57:47;;;;;;;9.27;3.20;;;;;;;14.15;69.18;101751.19;5067482;28;20040;-67
2022/11/10 09:00:14;;;;;;;9.60;3.28;;;;;;;14.86;67.53;101756.34;5066809;28;20046;-67
2022/11/10 09:02:41;;;;;;;8.98;3.10;;;;;;;15.95;64.68;101766.13;5068320;28;20060;-67
2022/11/10 09:05:08;;;;;;;10.10;3.00;;;;;;;16.89;60.88;101758.66;5067080;28;20044;-68
2022/11/10 09:07:42;;;;;;;10.82;2.75;;;;;;;17.07;59.82;101766.44;5075547;28;20063;-68
2022/11/10 09:10:10;;;;;;;6.80;2.63;;;;;;;17.13;59.43;101764.25;5083342;28;20488;-68
2022/11/10 09:12:37;;;;;;;11.88;3.20;;;;;;;16.81;60.28;101768.91;5067982;28;20041;-68
2022/11/10 09:15:04;;;;;;;10.27;3.30;;;;;;;17.59;57.61;101764.84;5066747;28;20044;-68
2022/11/10 09:17:31;;;;;;;10.20;3.30;;;;;;;17.68;58.53;101779.31;5065223;28;20040;-68
2022/11/10 09:19:57;;;;;;;6.43;2.67;;;;;;;18.36;55.63;101770.28;5081252;28;20408;-68
2022/11/10 09:22:24;;;;;;;9.35;3.33;;;;;;;18.08;55.58;101778.38;5080999;28;20496;-68
2022/11/10 09:24:50;;;;;;;6.78;2.65;;;;;;;18.24;55.54;101780.88;5066239;28;20098;-68
2022/11/10 09:27:18;;;;;;;10.82;3.03;;;;;;;18.30;55.77;101783.97;5067656;28;20424;-68
2022/11/10 09:29:45;;;;;;;6.30;2.45;;;;;;;18.98;54.91;101786.38;5069938;28;20052;-68
2022/11/10 09:32:11;;;;;;;10.95;2.78;;;;;;;19.48;52.27;101787.25;5065950;28;20060;-68
2022/11/10 09:34:38;;;;;;;5.60;2.10;;;;;;;19.63;51.33;101794.97;5068863;28;20059;-68
2022/11/10 09:37:04;;;;;;;8.52;2.38;;;;;;;20.20;50.39;101795.16;5067075;28;20412;-68
2022/11/10 09:39:30;;;;;;;5.07;2.00;;;;;;;20.37;48.67;101805.41;5077773;28;20518;-68
2022/11/10 09:41:57;;;;;;;6.28;2.10;;;;;;;20.38;48.64;101803.59;5088424;28;20708;-68
2022/11/10 09:44:27;;;;;;;13.40;2.50;;;;;;;20.55;48.72;101802.28;5081452;28;20048;-68
2022/11/10 09:46:59;;;;;;;8.88;2.72;;;;;;;21.02;47.66;101803.97;5086503;28;20044;-68
2022/11/10 09:49:33;;;;;;;8.02;1.98;;;;;;;21.38;46.16;101814.41;5066415;28;20047;-68
2022/11/10 09:52:01;;;;;;;10.27;2.55;;;;;;;20.81;47.32;101825.97;5068043;28;20048;-68
2022/11/10 09:54:37;;;;;;;7.95;2.20;;;;;;;20.72;47.25;101824.03;5082357;28;20055;-68
2022/11/10 09:57:06;;;;;;;8.27;2.20;;;;;;;20.91;46.78;101830.59;5066908;28;20036;-68
2022/11/10 09:59:34;;;;;;;5.28;2.45;;;;;;;21.36;46.34;101824.34;5069093;28;20384;-68
2022/11/10 10:02:04;;;;;;;6.72;2.15;;;;;;;21.07;45.49;101826.59;5080241;28;20057;-68
2022/11/10 10:05:02;;;;;;;7.70;2.20;;;;;;;21.17;46.31;101824.97;5066642;28;20094;-68
2022/11/10 10:07:38;;;;;;;7.40;2.20;;;;;;;21.52;46.35;101818.63;5076890;28;20467;-68
2022/11/10 10:10:13;;;;;;;5.78;1.90;;;;;;;21.19;46.13;101824.84;5077899;28;20496;-68
2022/11/10 10:12:52;;;;;;;6.93;2.00;;;;;;;20.88;46.79;101827.19;5066862;28;20499;-68
2022/11/10 10:15:29;;;;;;;8.60;2.42;;;;;;;20.71;47.40;101835.66;5066975;28;20492;-68
2022/11/10 10:18:08;;;;;;;6.35;2.08;;;;;;;20.21;47.44;101828.78;5056955;28;20044;-68
2022/11/10 10:20:46;;;;;;;8.95;2.20;;;;;;;20.40;48.45;101834.47;5064022;28;20048;-68
2022/11/10 10:23:21;;;;;;;8.35;2.60;;;;;;;19.91;48.85;101834.59;5046348;28;20532;-68
2022/11/10 10:25:48;;;;;;;12.48;2.70;;;;;;;19.54;50.15;101837.38;5057392;28;20040;-68
2022/11/10 10:28:24;;;;;;;9.85;2.35;;;;;;;20.16;50.52;101830.97;5065016;28;20047;-68
2022/11/10 10:30:52;;;;;;;5.72;1.77;;;;;;;19.86;49.11;101830.56;5065746;28;20044;-68
2022/11/10 10:33:20;;;;;;;8.57;2.20;;;;;;;19.87;49.99;101838.44;5065284;28;20041;-68
2022/11/10 10:35:48;;;;;;;11.77;3.10;;;;;;;19.71;49.89;101834.34;5070582;28;20044;-68
2022/11/10 10:38:22;;;;;;;6.15;1.95;;;;;;;19.72;50.05;101833.38;5066182;28;20518;-68
2022/11/10 10:40:51;;;;;;;9.25;2.30;;;;;;;19.57;50.42;101834.50;5065542;28;20122;-68
2022/11/10 10:43:18;;;;;;;13.05;2.42;;;;;;;19.31;50.70;101838.97;5065165;28;20045;-68
2022/11/10 10:45:44;;;;;;;11.95;2.63;;;;;;;19.42;51.36;101836.44;5066690;28;20052;-68
2022/11/10 10:48:26;;;;;;;9.40;2.53;;;;;;;19.27;51.52;101833.03;5065839;28;20047;-68
2022/11/10 10:50:53;;;;;;;8.48;2.42;;;;;;;18.45;52.75;101835.19;5062884;28;20048;-68
2022/11/10 10:53:21;;;;;;;7.68;1.85;;;;;;;18.36;53.87;101843.78;5065716;28;20059;-68
2022/11/10 10:55:53;;;;;;;9.90;2.75;;;;;;;18.26;53.92;101840.88;5071362;28;20397;-67
2022/11/10 10:58:25;;;;;;;7.18;1.70;;;;;;;18.35;53.86;101845.59;5065657;28;20109;-67
2022/11/10 11:00:54;;;;;;;8.73;1.55;;;;;;;18.04;54.81;101832.63;5065832;28;20699;-68
2022/11/10 11:03:28;;;;;;;10.00;2.00;;;;;;;17.34;55.79;101823.00;5065740;28;20493;-67
2022/11/10 11:06:06;;;;;;;5.35;2.10;;;;;;;17.38;56.68;101838.63;5073862;28;20063;-67
2022/11/10 11:08:32;;;;;;;10.68;2.10;;;;;;;17.41;56.66;101837.56;5086475;28;20048;-67
2022/11/10 11:11:07;;;;;;;6.78;1.70;;;;;;;17.85;55.57;101832.97;5070757;28;20495;-67
2022/11/10 11:13:34;;;;;;;9.35;2.33;;;;;;;18.16;53.78;101830.97;5064253;28;20052;-67
2022/11/10 11:16:02;;;;;;;5.22;1.63;;;;;;;18.14;53.67;101838.19;5065795;28;20053;-67
2022/11/10 11:18:32;;;;;;;6.28;1.50;;;;;;;18.07;54.48;101840.38;5062017;28;20044;-68
2022/11/10 11:21:04;;;;;;;10.73;2.10;;;;;;;17.87;54.33;101847.00;5063265;28;20567;-67
2022/11/10 11:23:40;;;;;;;;;;;;;;;18.56;53.65;101842.47;5079767;28;20439;-68
2022/11/10 11:26:12;;;;;;;4.78;1.67;;;;;;;18.51;51.73;101849.88;5067575;28;20343;-67
2022/11/10 11:28:51;;;;;;;4.45;2.00;;;;;;;18.47;50.96;101863.38;5066025;28;20055;-67
2022/11/10 11:31:28;;;;;;;7.60;1.90;;;;;;;18.78;51.59;101862.16;5064472;28;20045;-67
2022/11/10 11:34:04;;;;;;;9.23;1.75;;;;;;;18.94;50.65;101872.59;5066753;28;20492;-67
2022/11/10 11:36:41;;;;;;;5.97;2.00;;;;;;;18.99;51.06;101877.59;5045059;28;20045;-67
2022/11/10 11:39:21;;;;;;;5.60;1.80;;;;;;;19.52;51.05;101876.53;5048019;28;20048;-67
2022/11/10 11:41:58;;;;;;;5.63;1.48;;;;;;;19.57;49.68;101885.03;5049638;28;20037;-67